Time;durP1;ratioP1;P1;durP2;ratioP2;P2;SDS_P1;SDS_P2;PMS_P1;PMS_P2;Temp;Humidity;BMP_temperature;BMP_pressure;BME280_temperature;BME280_humidity;BME280_pressure;Samples;Min_cycle;Max_cycle;Signal;HPM_P1;HPM_P2
2022/09/09 00:00:27;;;;;;;0.60;0.60;;;14.50;99.60;;;;;;5090506;28;21094;-79
2022/09/09 00:03:02;;;;;;;0.97;0.87;;;14.60;99.60;;;;;;5090920;28;21516;-79
2022/09/09 00:05:39;;;;;;;2.57;0.80;;;14.60;99.50;;;;;;5089657;28;20628;-78
2022/09/09 00:08:19;;;;;;;0.87;0.63;;;14.50;99.20;;;;;;5089089;28;21207;-79
2022/09/09 00:10:53;;;;;;;0.47;0.40;;;14.60;99.30;;;;;;5089883;28;21020;-78
2022/09/09 00:13:23;;;;;;;0.60;0.60;;;14.60;99.40;;;;;;5089717;28;21225;-79
2022/09/09 00:15:59;;;;;;;0.90;0.47;;;14.50;99.70;;;;;;5089877;28;20739;-79
2022/09/09 00:18:30;;;;;;;0.40;0.40;;;14.50;99.60;;;;;;5089814;28;20965;-78
2022/09/09 00:21:07;;;;;;;0.83;0.83;;;14.50;99.70;;;;;;5090171;28;20635;-79
2022/09/09 00:23:39;;;;;;;1.20;0.80;;;14.60;99.80;;;;;;5089712;28;20842;-79
2022/09/09 00:26:12;;;;;;;0.50;0.40;;;14.60;99.80;;;;;;5089426;28;20634;-78
2022/09/09 00:28:46;;;;;;;0.73;0.53;;;14.70;99.70;;;;;;5090110;28;20623;-79
2022/09/09 00:31:18;;;;;;;0.83;0.83;;;14.70;99.40;;;;;;5089515;28;21097;-79
2022/09/09 00:33:44;;;;;;;0.50;0.50;;;14.70;99.30;;;;;;5089650;28;20637;-78
2022/09/09 00:36:18;;;;;;;1.13;1.03;;;14.70;99.40;;;;;;5088704;28;20633;-79
2022/09/09 00:38:49;;;;;;;0.70;0.60;;;14.80;99.10;;;;;;5090076;28;20727;-79
2022/09/09 00:41:22;;;;;;;0.80;0.80;;;14.90;98.80;;;;;;5089528;28;20629;-80
2022/09/09 00:43:57;;;;;;;0.63;0.63;;;15.00;98.60;;;;;;5089361;28;20629;-80
2022/09/09 00:46:54;;;;;;;0.93;0.67;;;14.90;99.00;;;;;;5088795;28;20624;-79
2022/09/09 00:49:31;;;;;;;0.80;0.80;;;14.90;99.00;;;;;;5089234;28;20632;-79
2022/09/09 00:52:16;;;;;;;1.00;0.87;;;14.90;98.80;;;;;;5088916;28;20621;-79
2022/09/09 00:54:51;;;;;;;0.70;0.50;;;15.00;99.00;;;;;;5088042;28;20655;-79
2022/09/09 00:57:28;;;;;;;0.50;0.50;;;15.00;99.40;;;;;;5089735;28;20683;-79
2022/09/09 01:00:05;;;;;;;0.87;0.70;;;15.00;99.40;;;;;;5104758;28;20616;-79
2022/09/09 01:02:39;;;;;;;0.60;0.50;;;15.10;98.30;;;;;;5089003;28;20624;-78
2022/09/09 01:05:13;;;;;;;0.60;0.60;;;15.20;98.10;;;;;;5088117;28;20631;-79
2022/09/09 01:07:45;;;;;;;1.27;0.60;;;15.20;98.30;;;;;;5088089;28;20612;-79
2022/09/09 01:10:18;;;;;;;0.60;0.60;;;15.20;98.10;;;;;;5089490;28;20617;-80
2022/09/09 01:12:49;;;;;;;1.17;0.70;;;15.10;98.10;;;;;;5088905;28;20628;-79
2022/09/09 01:15:22;;;;;;;1.20;1.10;;;15.10;98.30;;;;;;5068087;28;20983;-80
2022/09/09 01:17:57;;;;;;;0.60;0.60;;;15.20;98.30;;;;;;5085938;28;21205;-79
2022/09/09 01:20:28;;;;;;;0.80;0.70;;;15.20;98.00;;;;;;5088579;28;21267;-80
2022/09/09 01:23:21;;;;;;;0.50;0.50;;;15.10;98.60;;;;;;5088592;28;20675;-79
2022/09/09 01:26:14;;;;;;;1.20;1.10;;;15.10;99.00;;;;;;5087887;28;20639;-80
2022/09/09 01:28:45;;;;;;;0.60;0.50;;;15.10;98.60;;;;;;5074904;28;20714;-80
2022/09/09 01:31:16;;;;;;;0.53;0.53;;;15.10;98.70;;;;;;5087384;28;20620;-79
2022/09/09 01:33:43;;;;;;;1.00;1.00;;;15.10;98.70;;;;;;5088315;28;21068;-79
2022/09/09 01:36:16;;;;;;;0.97;0.80;;;15.10;98.70;;;;;;5087980;28;20667;-80
2022/09/09 01:38:44;;;;;;;0.70;0.63;;;15.10;98.60;;;;;;5088473;28;20651;-79
2022/09/09 01:41:14;;;;;;;1.10;0.57;;;15.00;98.30;;;;;;5087973;28;20706;-78
2022/09/09 01:43:42;;;;;;;0.80;0.80;;;15.10;98.10;;;;;;5088373;28;21159;-79
2022/09/09 01:46:10;;;;;;;0.60;0.40;;;15.00;98.60;;;;;;5088017;28;20628;-79
2022/09/09 01:48:38;;;;;;;0.80;0.57;;;15.00;98.80;;;;;;5088335;28;20751;-79
2022/09/09 01:51:06;;;;;;;0.63;0.50;;;15.00;98.60;;;;;;5075666;28;20653;-79
2022/09/09 01:53:34;;;;;;;0.60;0.50;;;14.90;98.30;;;;;;5082071;28;20629;-79
2022/09/09 01:56:09;;;;;;;0.80;0.70;;;14.90;98.20;;;;;;5087337;28;20629;-79
2022/09/09 01:58:52;;;;;;;0.47;0.43;;;14.80;97.90;;;;;;5088505;28;21110;-79
2022/09/09 02:01:36;;;;;;;0.50;0.50;;;14.90;97.90;;;;;;5087501;28;20654;-79
2022/09/09 02:04:17;;;;;;;1.57;0.50;;;14.90;98.10;;;;;;5087693;28;20624;-79
2022/09/09 02:06:46;;;;;;;0.50;0.50;;;14.90;98.20;;;;;;5073724;28;20670;-79
2022/09/09 02:09:15;;;;;;;0.53;0.53;;;14.80;98.10;;;;;;5086997;28;20682;-79
2022/09/09 02:11:44;;;;;;;2.50;0.90;;;14.90;97.90;;;;;;5087343;28;20730;-79
2022/09/09 02:14:18;;;;;;;0.40;0.40;;;14.90;98.20;;;;;;5080899;28;20666;-78
2022/09/09 02:16:51;;;;;;;1.47;0.50;;;14.80;98.30;;;;;;5088302;28;20673;-79
2022/09/09 02:19:25;;;;;;;0.40;0.40;;;14.80;98.60;;;;;;5087178;28;20716;-79
2022/09/09 02:21:57;;;;;;;0.70;0.70;;;14.80;98.20;;;;;;5087195;28;20620;-79
2022/09/09 02:24:27;;;;;;;0.60;0.60;;;14.70;98.10;;;;;;5086426;28;20714;-78
2022/09/09 02:26:56;;;;;;;2.67;0.90;;;14.90;98.40;;;;;;5087482;28;20628;-79
2022/09/09 02:29:29;;;;;;;2.10;0.93;;;14.70;98.60;;;;;;5087593;28;20636;-79
2022/09/09 02:32:03;;;;;;;0.60;0.60;;;14.50;98.70;;;;;;5086372;28;20624;-79
2022/09/09 02:34:33;;;;;;;0.60;0.60;;;14.50;98.80;;;;;;5086423;28;20645;-79
2022/09/09 02:37:03;;;;;;;0.70;0.70;;;14.30;98.80;;;;;;5087109;28;20624;-79
2022/09/09 02:39:30;;;;;;;0.73;0.40;;;14.30;99.00;;;;;;5087471;28;20632;-78
2022/09/09 02:41:58;;;;;;;0.60;0.60;;;14.30;99.20;;;;;;5087310;28;20980;-79
2022/09/09 02:44:28;;;;;;;0.50;0.40;;;14.40;99.20;;;;;;5087211;28;20723;-79
2022/09/09 02:47:16;;;;;;;0.67;0.50;;;14.30;99.00;;;;;;5087068;28;20617;-79
2022/09/09 02:49:53;;;;;;;0.60;0.50;;;14.40;98.90;;;;;;5087575;28;20621;-79
2022/09/09 02:52:27;;;;;;;0.40;0.40;;;14.40;98.60;;;;;;5070709;28;21264;-79
2022/09/09 02:55:00;;;;;;;0.70;0.60;;;14.30;98.60;;;;;;5089794;28;21377;-79
2022/09/09 02:57:31;;;;;;;0.73;0.60;;;14.30;99.00;;;;;;5091811;28;20612;-79
2022/09/09 03:00:01;;;;;;;0.47;0.37;;;14.20;99.20;;;;;;5090271;28;20616;-79
2022/09/09 03:02:30;;;;;;;0.50;0.43;;;14.30;99.50;;;;;;5091313;28;20723;-79
2022/09/09 03:04:57;;;;;;;0.83;0.83;;;14.30;99.40;;;;;;5090408;28;21033;-79
2022/09/09 03:07:24;;;;;;;0.93;0.67;;;14.30;99.00;;;;;;5089584;28;20628;-79
2022/09/09 03:09:53;;;;;;;0.90;0.90;;;14.20;99.20;;;;;;5099995;28;20655;-79
2022/09/09 03:12:20;;;;;;;0.80;0.60;;;14.20;99.70;;;;;;5111444;28;20623;-78
2022/09/09 03:14:47;;;;;;;0.60;0.60;;;14.30;99.50;;;;;;5109679;28;20651;-79
2022/09/09 03:17:15;;;;;;;0.40;0.40;;;14.20;99.80;;;;;;5090917;28;21190;-79
2022/09/09 03:19:42;;;;;;;1.13;0.90;;;14.20;99.80;;;;;;5097192;28;20615;-79
2022/09/09 03:22:10;;;;;;;0.63;0.50;;;14.30;99.90;;;;;;5111317;28;20640;-79
2022/09/09 03:24:37;;;;;;;0.90;0.50;;;14.40;99.70;;;;;;5095489;28;20608;-79
2022/09/09 03:27:04;;;;;;;0.70;0.50;;;14.40;99.30;;;;;;5090763;28;21005;-79
2022/09/09 03:29:31;;;;;;;0.50;0.40;;;14.40;99.40;;;;;;5090548;28;20715;-80
2022/09/09 03:31:58;;;;;;;0.87;0.50;;;14.40;99.70;;;;;;5090803;28;20628;-78
2022/09/09 03:34:26;;;;;;;1.43;1.27;;;14.30;99.50;;;;;;5089593;28;20662;-80
2022/09/09 03:36:53;;;;;;;0.50;0.50;;;14.40;99.30;;;;;;5090538;28;20624;-80
2022/09/09 03:39:20;;;;;;;0.70;0.60;;;14.50;98.70;;;;;;5089983;28;20667;-79
2022/09/09 03:41:48;;;;;;;1.00;0.80;;;14.50;98.20;;;;;;5090332;28;20715;-79
2022/09/09 03:44:15;;;;;;;1.23;0.40;;;14.60;98.00;;;;;;5090524;28;21169;-79
2022/09/09 03:46:42;;;;;;;0.57;0.43;;;14.60;98.60;;;;;;5090548;28;20965;-79
2022/09/09 03:49:10;;;;;;;0.70;0.57;;;14.40;99.10;;;;;;5090597;28;20723;-79
2022/09/09 03:51:38;;;;;;;0.43;0.30;;;14.50;99.00;;;;;;5090198;28;20631;-80
2022/09/09 03:54:08;;;;;;;0.60;0.40;;;14.50;98.70;;;;;;5089997;28;21377;-79
2022/09/09 03:56:34;;;;;;;0.63;0.60;;;14.60;98.30;;;;;;5090349;28;21303;-79
2022/09/09 03:59:01;;;;;;;0.30;0.30;;;14.70;98.20;;;;;;5090152;28;20640;-80
2022/09/09 04:01:28;;;;;;;0.40;0.37;;;14.80;98.00;;;;;;5089781;28;20686;-78
2022/09/09 04:03:57;;;;;;;0.80;0.60;;;14.70;98.40;;;;;;5090695;28;20629;-79
2022/09/09 04:06:25;;;;;;;0.73;0.50;;;14.70;98.20;;;;;;5088861;28;21280;-79
2022/09/09 04:08:55;;;;;;;0.47;0.47;;;14.70;98.00;;;;;;5089659;28;20620;-80
2022/09/09 04:11:22;;;;;;;0.63;0.63;;;14.70;97.80;;;;;;5089787;28;20667;-79
2022/09/09 04:13:49;;;;;;;0.60;0.57;;;14.70;98.40;;;;;;5090003;28;20624;-79
2022/09/09 04:16:16;;;;;;;0.90;0.60;;;14.60;98.90;;;;;;5089358;28;20729;-78
2022/09/09 04:18:43;;;;;;;1.90;0.60;;;14.70;98.70;;;;;;5089625;28;20663;-80
2022/09/09 04:21:11;;;;;;;0.40;0.40;;;14.70;98.20;;;;;;5089631;28;20656;-79
2022/09/09 04:23:39;;;;;;;0.40;0.40;;;14.70;98.20;;;;;;5090184;28;20687;-79
2022/09/09 04:26:07;;;;;;;2.00;0.70;;;14.70;98.10;;;;;;5089054;28;21292;-79
2022/09/09 04:28:36;;;;;;;0.60;0.60;;;14.80;98.10;;;;;;5091319;28;20617;-80
2022/09/09 04:31:07;;;;;;;1.77;0.60;;;14.80;97.80;;;;;;5098267;28;20624;-80
2022/09/09 04:33:34;;;;;;;0.40;0.40;;;14.80;98.00;;;;;;5095578;28;20614;-80
2022/09/09 04:36:01;;;;;;;0.63;0.63;;;14.90;97.90;;;;;;5096771;28;20770;-79
2022/09/09 04:38:28;;;;;;;1.00;0.40;;;14.90;97.80;;;;;;5094483;28;20621;-79
2022/09/09 04:40:55;;;;;;;0.70;0.70;;;14.90;97.50;;;;;;5089495;28;20683;-79
2022/09/09 04:43:25;;;;;;;0.83;0.83;;;14.80;97.70;;;;;;5088792;28;20639;-80
2022/09/09 04:45:52;;;;;;;0.60;0.60;;;14.90;97.80;;;;;;5088697;28;20635;-79
2022/09/09 04:48:20;;;;;;;0.50;0.50;;;15.00;98.40;;;;;;5088337;28;20680;-80
2022/09/09 04:50:56;;;;;;;0.73;0.73;;;14.90;99.00;;;;;;5089258;28;20640;-79
2022/09/09 04:53:23;;;;;;;0.87;0.80;;;14.80;99.50;;;;;;5088745;28;20631;-80
2022/09/09 04:55:50;;;;;;;1.07;0.50;;;14.70;99.90;;;;;;5088474;28;20987;-80
2022/09/09 04:58:17;;;;;;;0.40;0.40;;;14.70;99.90;;;;;;5088530;28;20984;-80
2022/09/09 05:00:45;;;;;;;1.03;0.70;;;14.60;99.90;;;;;;5088417;28;21257;-79
2022/09/09 05:03:12;;;;;;;9.43;1.87;;;14.50;99.90;;;;;;5094823;28;20628;-80
2022/09/09 05:05:39;;;;;;;0.80;0.80;;;14.50;99.90;;;;;;5087997;28;20629;-78
2022/09/09 05:08:08;;;;;;;1.23;0.93;;;14.40;99.90;;;;;;5087430;28;20627;-79
2022/09/09 05:10:36;;;;;;;1.20;1.10;;;14.30;99.90;;;;;;5088111;28;20628;-78
2022/09/09 05:13:04;;;;;;;0.73;0.50;;;14.40;99.90;;;;;;5088627;28;21259;-78
2022/09/09 05:15:31;;;;;;;0.57;0.57;;;14.30;99.90;;;;;;5087629;28;20673;-79
2022/09/09 05:18:00;;;;;;;1.00;0.60;;;14.30;99.90;;;;;;5087344;28;21095;-79
2022/09/09 05:20:26;;;;;;;0.40;0.40;;;14.30;99.90;;;;;;5088604;28;20636;-79
2022/09/09 05:22:54;;;;;;;1.17;0.83;;;14.30;99.90;;;;;;5088710;28;21320;-79
2022/09/09 05:25:22;;;;;;;1.07;1.07;;;14.40;99.90;;;;;;5087593;28;20689;-79
2022/09/09 05:27:49;;;;;;;0.93;0.80;;;14.50;99.90;;;;;;5088384;28;21818;-79
2022/09/09 05:30:16;;;;;;;0.70;0.70;;;14.50;99.90;;;;;;5078032;28;20625;-80
2022/09/09 05:32:43;;;;;;;0.70;0.70;;;14.50;99.90;;;;;;5073857;28;20651;-79
2022/09/09 05:35:11;;;;;;;2.10;0.90;;;14.60;99.90;;;;;;5090518;28;20663;-80
2022/09/09 05:37:38;;;;;;;0.60;0.60;;;14.60;99.90;;;;;;5108017;28;20962;-79
2022/09/09 05:40:06;;;;;;;0.87;0.70;;;14.60;99.90;;;;;;5106211;28;20969;-80
2022/09/09 05:42:33;;;;;;;0.77;0.77;;;14.60;99.90;;;;;;5108329;28;20616;-79
2022/09/09 05:45:00;;;;;;;0.57;0.57;;;14.60;99.90;;;;;;5093126;28;20635;-79
2022/09/09 05:47:27;;;;;;;1.90;0.60;;;14.70;99.90;;;;;;5087612;28;20629;-79
2022/09/09 05:49:55;;;;;;;0.73;0.73;;;14.80;99.90;;;;;;5088140;28;20636;-79
2022/09/09 05:52:23;;;;;;;1.23;0.90;;;14.90;99.90;;;;;;5088405;28;20617;-79
2022/09/09 05:54:50;;;;;;;1.10;1.00;;;15.00;99.90;;;;;;5087201;28;20623;-78
2022/09/09 05:57:17;;;;;;;1.57;0.97;;;15.00;99.90;;;;;;5087808;28;20631;-78
2022/09/09 05:59:43;;;;;;;2.10;1.43;;;14.90;99.90;;;;;;5105769;28;20626;-79
2022/09/09 06:02:10;;;;;;;2.10;1.00;;;14.90;99.90;;;;;;5104519;28;20612;-79
2022/09/09 06:04:38;;;;;;;1.80;1.70;;;15.00;99.90;;;;;;5087807;28;20608;-78
2022/09/09 06:07:05;;;;;;;0.70;0.70;;;15.00;99.90;;;;;;5087985;28;20669;-79
2022/09/09 06:09:33;;;;;;;0.63;0.60;;;15.10;99.90;;;;;;5087398;28;20628;-78
2022/09/09 06:12:00;;;;;;;1.03;0.70;;;15.20;99.90;;;;;;5088083;28;21217;-78
2022/09/09 06:14:27;;;;;;;0.60;0.60;;;15.30;99.90;;;;;;5087334;28;21170;-79
2022/09/09 06:16:54;;;;;;;0.80;0.80;;;15.30;99.50;;;;;;5088321;28;20671;-79
2022/09/09 06:19:21;;;;;;;0.50;0.43;;;15.30;99.20;;;;;;5087960;28;20625;-78
2022/09/09 06:21:48;;;;;;;0.60;0.60;;;15.40;99.50;;;;;;5087303;28;21402;-79
2022/09/09 06:24:17;;;;;;;1.63;1.53;;;15.40;99.90;;;;;;5087476;28;20678;-79
2022/09/09 06:26:45;;;;;;;1.50;1.40;;;15.40;99.90;;;;;;5088089;28;20702;-79
2022/09/09 06:29:12;;;;;;;0.60;0.60;;;15.40;99.70;;;;;;5088019;28;20609;-80
2022/09/09 06:31:40;;;;;;;1.23;1.10;;;15.50;99.30;;;;;;5088014;28;20632;-78
2022/09/09 06:34:08;;;;;;;0.90;0.80;;;15.60;99.00;;;;;;5086965;28;20686;-79
2022/09/09 06:36:36;;;;;;;1.53;0.87;;;15.60;99.60;;;;;;5087130;28;21214;-78
2022/09/09 06:39:04;;;;;;;1.20;1.10;;;15.60;99.10;;;;;;5086874;28;20707;-79
2022/09/09 06:41:32;;;;;;;1.23;1.10;;;15.70;99.30;;;;;;5087718;28;20925;-79
2022/09/09 06:44:01;;;;;;;0.67;0.67;;;15.80;99.90;;;;;;5086417;28;20876;-79
2022/09/09 06:46:30;;;;;;;0.47;0.47;;;15.70;99.10;;;;;;5086214;28;20624;-80
2022/09/09 06:48:58;;;;;;;0.77;0.77;;;15.80;99.80;;;;;;5086888;28;20624;-79
2022/09/09 06:51:27;;;;;;;0.57;0.57;;;16.00;99.90;;;;;;5087559;28;20636;-79
2022/09/09 06:53:55;;;;;;;0.93;0.70;;;15.80;99.90;;;;;;5085782;28;21146;-79
2022/09/09 06:56:23;;;;;;;0.60;0.60;;;15.90;99.20;;;;;;5084817;28;20675;-79
2022/09/09 06:58:52;;;;;;;0.80;0.80;;;15.90;99.90;;;;;;5086341;28;20621;-79
2022/09/09 07:01:23;;;;;;;1.07;0.97;;;16.00;99.40;;;;;;5086867;28;20703;-79
2022/09/09 07:03:51;;;;;;;0.70;0.70;;;16.00;99.60;;;;;;5087248;28;20629;-79
2022/09/09 07:06:20;;;;;;;0.80;0.80;;;16.10;98.90;;;;;;5085385;28;20625;-80
2022/09/09 07:08:51;;;;;;;1.10;0.77;;;16.20;98.80;;;;;;5086045;28;20641;-80
2022/09/09 07:11:19;;;;;;;2.20;0.70;;;16.20;99.40;;;;;;5086666;28;20670;-80
2022/09/09 07:13:46;;;;;;;1.30;0.80;;;16.30;98.60;;;;;;5087061;28;21245;-81
2022/09/09 07:16:14;;;;;;;2.47;1.23;;;16.40;99.20;;;;;;5093425;28;20976;-80
2022/09/09 07:18:43;;;;;;;0.57;0.57;;;16.40;98.80;;;;;;5086799;28;20699;-80
2022/09/09 07:21:11;;;;;;;0.73;0.73;;;16.50;98.60;;;;;;5086762;28;20621;-79
2022/09/09 07:23:39;;;;;;;0.57;0.40;;;16.50;98.60;;;;;;5087019;28;20620;-79
2022/09/09 07:26:10;;;;;;;2.37;1.27;;;16.50;98.70;;;;;;5085352;28;20616;-81
2022/09/09 07:28:37;;;;;;;0.60;0.60;;;16.60;98.30;;;;;;5094585;28;20989;-80
2022/09/09 07:31:05;;;;;;;0.70;0.70;;;16.80;98.00;;;;;;5092441;28;20637;-80
2022/09/09 07:33:34;;;;;;;0.53;0.50;;;16.80;98.10;;;;;;5087070;28;20715;-80
2022/09/09 07:36:08;;;;;;;1.27;0.80;;;16.80;97.90;;;;;;5086146;28;21188;-80
2022/09/09 07:38:40;;;;;;;0.73;0.73;;;16.80;97.80;;;;;;5087035;28;20628;-81
2022/09/09 07:41:11;;;;;;;1.13;0.80;;;16.80;97.90;;;;;;5089319;28;20621;-80
2022/09/09 07:43:39;;;;;;;0.50;0.50;;;17.00;98.30;;;;;;5090528;28;21307;-82
2022/09/09 07:46:06;;;;;;;0.50;0.40;;;17.20;98.30;;;;;;5090356;28;20609;-80
2022/09/09 07:48:34;;;;;;;2.57;1.13;;;17.40;97.30;;;;;;5090474;28;20659;-80
2022/09/09 07:51:08;;;;;;;0.80;0.63;;;17.40;97.60;;;;;;5091353;28;20667;-81
2022/09/09 07:53:38;;;;;;;0.90;0.90;;;17.40;97.60;;;;;;5090318;28;21026;-80
2022/09/09 07:56:07;;;;;;;0.63;0.53;;;17.50;97.60;;;;;;5090289;28;21288;-80
2022/09/09 07:58:34;;;;;;;1.33;0.57;;;17.70;97.00;;;;;;5090596;28;21388;-80
2022/09/09 08:01:00;;;;;;;0.73;0.73;;;17.90;97.00;;;;;;5090507;28;20717;-80
2022/09/09 08:03:27;;;;;;;0.73;0.73;;;18.00;96.90;;;;;;5090752;28;21037;-81
2022/09/09 08:06:01;;;;;;;0.70;0.70;;;18.10;96.30;;;;;;5088914;28;20726;-80
2022/09/09 08:08:29;;;;;;;0.60;0.60;;;18.20;95.30;;;;;;5089105;28;20727;-81
2022/09/09 08:11:04;;;;;;;4.97;1.20;;;18.30;94.90;;;;;;5090118;28;20616;-80
2022/09/09 08:13:31;;;;;;;0.73;0.73;;;18.30;95.50;;;;;;5090339;28;20631;-81
2022/09/09 08:16:05;;;;;;;0.60;0.60;;;18.40;95.70;;;;;;5089466;28;20758;-80
2022/09/09 08:18:33;;;;;;;0.70;0.57;;;18.60;95.60;;;;;;5089817;28;20616;-81
2022/09/09 08:21:06;;;;;;;0.70;0.60;;;18.70;95.40;;;;;;5090163;28;20631;-81
2022/09/09 08:23:34;;;;;;;0.57;0.57;;;19.00;94.50;;;;;;5070494;28;20667;-81
2022/09/09 08:26:05;;;;;;;0.77;0.70;;;19.10;94.20;;;;;;5090150;28;20723;-81
2022/09/09 08:28:32;;;;;;;1.17;0.73;;;19.10;94.60;;;;;;5089350;28;20624;-79
2022/09/09 08:31:06;;;;;;;0.40;0.40;;;19.10;93.90;;;;;;5089128;28;20695;-79
2022/09/09 08:33:33;;;;;;;0.70;0.57;;;19.00;94.10;;;;;;5089828;28;20636;-81
2022/09/09 08:36:00;;;;;;;1.30;0.70;;;19.20;93.90;;;;;;5089298;28;20663;-80
2022/09/09 08:38:28;;;;;;;1.00;0.80;;;19.30;93.90;;;;;;5088427;28;20836;-80
2022/09/09 08:41:05;;;;;;;1.23;0.97;;;19.50;93.40;;;;;;5090940;28;20278;-81
2022/09/09 08:43:33;;;;;;;1.13;0.97;;;19.50;92.50;;;;;;5105321;28;20624;-81
2022/09/09 08:46:06;;;;;;;1.77;0.60;;;19.50;92.60;;;;;;5089227;28;20660;-81
2022/09/09 08:48:52;;;;;;;0.60;0.60;;;19.40;92.60;;;;;;5089711;28;20648;-80
2022/09/09 08:51:19;;;;;;;0.50;0.50;;;19.50;92.70;;;;;;5089280;28;20704;-80
2022/09/09 08:53:51;;;;;;;0.60;0.60;;;19.50;92.80;;;;;;5090490;28;20660;-81
2022/09/09 08:56:22;;;;;;;0.60;0.60;;;19.70;92.90;;;;;;5088309;28;20660;-80
2022/09/09 08:58:51;;;;;;;0.63;0.60;;;20.00;91.80;;;;;;5090160;28;20721;-81
2022/09/09 09:01:31;;;;;;;0.93;0.73;;;20.20;90.90;;;;;;5089770;28;21004;-82
2022/09/09 09:04:03;;;;;;;1.17;0.80;;;20.30;91.10;;;;;;5088166;28;20625;-80
2022/09/09 09:06:41;;;;;;;1.07;0.70;;;20.40;90.60;;;;;;5086911;28;20640;-79
2022/09/09 09:09:15;;;;;;;0.60;0.50;;;20.40;89.70;;;;;;5089022;28;20732;-80
2022/09/09 09:11:47;;;;;;;0.60;0.60;;;20.20;87.70;;;;;;5088463;28;20736;-81
2022/09/09 09:14:21;;;;;;;0.93;0.80;;;20.20;89.90;;;;;;5088155;28;20661;-81
2022/09/09 09:16:53;;;;;;;0.40;0.30;;;20.10;90.60;;;;;;5088171;28;20659;-79
2022/09/09 09:19:22;;;;;;;0.40;0.40;;;19.80;90.10;;;;;;5089037;28;20656;-80
2022/09/09 09:21:55;;;;;;;0.30;0.30;;;19.70;91.80;;;;;;5088575;28;21036;-80
2022/09/09 09:24:28;;;;;;;0.80;0.60;;;19.60;92.30;;;;;;5088235;28;20621;-81
2022/09/09 09:26:56;;;;;;;1.93;0.70;;;19.20;96.30;;;;;;5088065;28;20727;-83
2022/09/09 09:29:26;;;;;;;0.40;0.40;;;18.60;97.00;;;;;;5087737;28;20633;-81
2022/09/09 09:31:55;;;;;;;0.80;0.80;;;18.60;97.60;;;;;;5087440;28;20643;-82
2022/09/09 09:34:23;;;;;;;0.73;0.73;;;18.00;99.90;;;;;;5088063;28;20694;-82
2022/09/09 09:36:55;;;;;;;0.57;0.40;;;17.80;99.90;;;;;;5088344;28;20702;-81
2022/09/09 09:39:28;;;;;;;0.53;0.33;;;17.50;99.90;;;;;;5088482;28;20727;-81
2022/09/09 09:41:57;;;;;;;0.50;0.33;;;17.80;99.90;;;;;;5087613;28;20628;-80
2022/09/09 09:44:27;;;;;;;0.60;0.50;;;17.30;99.90;;;;;;5087946;28;20977;-80
2022/09/09 09:47:06;;;;;;;1.00;0.60;;;17.40;99.90;;;;;;5088964;28;20690;-81
2022/09/09 09:49:33;;;;;;;1.17;0.50;;;17.40;99.90;;;;;;5092946;28;21059;-81
2022/09/09 09:52:01;;;;;;;0.50;0.50;;;17.40;99.90;;;;;;5090691;28;21075;-82
2022/09/09 09:54:30;;;;;;;0.77;0.60;;;17.50;99.90;;;;;;5087718;28;21020;-82
2022/09/09 09:57:10;;;;;;;0.43;0.43;;;17.60;99.90;;;;;;5088818;28;20667;-83
2022/09/09 09:59:39;;;;;;;0.60;0.60;;;17.70;99.90;;;;;;5097260;28;21084;-83
2022/09/09 10:02:26;;;;;;;0.87;0.70;;;17.80;99.90;;;;;;5090445;28;21065;-82
2022/09/09 10:05:03;;;;;;;0.60;0.60;;;18.10;99.90;;;;;;5086582;28;21023;-84
2022/09/09 10:07:30;;;;;;;0.83;0.83;;;18.30;99.90;;;;;;5086702;28;20628;-82
2022/09/09 10:09:58;;;;;;;1.57;0.97;;;18.30;99.90;;;;;;5093253;28;20616;-81
2022/09/09 10:12:45;;;;;;;0.50;0.50;;;18.50;99.90;;;;;;5090788;28;20641;-81
2022/09/09 10:15:31;;;;;;;0.70;0.60;;;18.70;99.90;;;;;;5086074;28;20635;-83
2022/09/09 10:18:06;;;;;;;1.30;1.20;;;19.00;99.90;;;;;;5086299;28;20763;-82
2022/09/09 10:20:44;;;;;;;0.60;0.60;;;19.00;99.90;;;;;;5086747;28;20731;-83
2022/09/09 10:23:26;;;;;;;0.50;0.50;;;19.10;99.90;;;;;;5087281;28;20616;-83
2022/09/09 10:26:19;;;;;;;0.90;0.70;;;19.20;99.90;;;;;;5085979;28;21192;-84
2022/09/09 10:29:21;;;;;;;0.80;0.80;;;19.30;99.90;;;;;;5087499;28;20674;-83
2022/09/09 10:32:02;;;;;;;0.87;0.63;;;19.60;98.30;;;;;;5084035;28;21027;-84
2022/09/09 10:34:57;;;;;;;0.87;0.87;;;19.60;99.00;;;;;;5085011;28;20620;-82
2022/09/09 10:37:39;;;;;;;3.90;1.67;;;19.60;99.90;;;;;;5079116;28;20669;-82
2022/09/09 10:40:24;;;;;;;0.80;0.80;;;19.70;98.50;;;;;;5086516;28;21202;-81
2022/09/09 10:42:51;;;;;;;1.00;0.67;;;19.70;97.90;;;;;;5086154;28;20682;-81
2022/09/09 10:45:24;;;;;;;0.60;0.60;;;19.70;99.10;;;;;;5085702;28;20629;-82
2022/09/09 10:48:07;;;;;;;0.73;0.73;;;19.80;99.30;;;;;;5086574;28;20616;-82
2022/09/09 10:50:52;;;;;;;0.60;0.60;;;19.50;99.90;;;;;;5085262;28;20628;-82
2022/09/09 10:53:29;;;;;;;0.80;0.80;;;19.30;99.50;;;;;;5082715;28;20791;-83
2022/09/09 10:56:04;;;;;;;2.10;0.60;;;19.30;99.90;;;;;;5083817;28;20216;-81
2022/09/09 10:58:38;;;;;;;1.10;1.00;;;19.20;99.90;;;;;;5087369;28;20667;-82
2022/09/09 11:01:15;;;;;;;2.50;0.60;;;19.20;99.90;;;;;;5077484;28;20651;-82
2022/09/09 11:03:44;;;;;;;0.70;0.60;;;19.50;98.50;;;;;;5081649;28;20632;-83
2022/09/09 11:06:16;;;;;;;1.10;1.00;;;19.50;99.90;;;;;;5085550;28;20617;-82
2022/09/09 11:08:43;;;;;;;1.00;0.90;;;19.50;98.90;;;;;;5086924;28;20736;-81
2022/09/09 11:11:16;;;;;;;0.67;0.67;;;19.40;99.90;;;;;;5086907;28;20731;-80
2022/09/09 11:13:49;;;;;;;0.60;0.40;;;19.50;99.90;;;;;;5085192;28;20625;-82
2022/09/09 11:16:26;;;;;;;0.70;0.70;;;19.60;99.40;;;;;;5089477;28;20631;-83
2022/09/09 11:18:59;;;;;;;0.90;0.70;;;19.70;99.90;;;;;;5071284;28;20625;-83
2022/09/09 11:21:30;;;;;;;1.30;0.90;;;19.60;96.60;;;;;;5082022;28;20727;-82
2022/09/09 11:24:02;;;;;;;0.60;0.60;;;19.50;97.30;;;;;;5090805;28;20616;-82
2022/09/09 11:26:33;;;;;;;0.87;0.70;;;19.50;97.00;;;;;;5090725;28;20735;-82
2022/09/09 11:29:17;;;;;;;0.53;0.53;;;19.40;93.90;;;;;;5090556;28;21189;-80
2022/09/09 11:31:58;;;;;;;0.40;0.40;;;19.20;92.50;;;;;;5090439;28;20644;-82
2022/09/09 11:34:38;;;;;;;0.40;0.40;;;18.90;93.00;;;;;;5089967;28;20658;-80
2022/09/09 11:37:27;;;;;;;2.00;0.50;;;19.00;91.60;;;;;;5089761;28;21102;-80
2022/09/09 11:40:19;;;;;;;0.53;0.40;;;19.00;92.50;;;;;;5090624;28;21197;-81
2022/09/09 11:42:49;;;;;;;0.90;0.30;;;18.90;91.20;;;;;;5087048;28;20636;-81
2022/09/09 11:45:25;;;;;;;0.60;0.60;;;18.70;92.00;;;;;;5089721;28;20620;-80
2022/09/09 11:47:57;;;;;;;0.60;0.37;;;18.70;92.70;;;;;;5089953;28;21189;-79
2022/09/09 11:50:37;;;;;;;0.50;0.47;;;18.60;92.00;;;;;;5089623;28;20623;-81
2022/09/09 11:53:23;;;;;;;0.60;0.30;;;18.60;93.50;;;;;;5089712;28;20734;-80
2022/09/09 11:56:11;;;;;;;0.40;0.30;;;18.60;92.10;;;;;;5089037;28;20647;-81
2022/09/09 11:58:45;;;;;;;0.50;0.30;;;18.70;92.20;;;;;;5090365;28;20787;-81
2022/09/09 12:01:17;;;;;;;0.30;0.20;;;19.00;92.00;;;;;;5089380;28;21279;-82
2022/09/09 12:03:48;;;;;;;0.50;0.20;;;19.30;91.60;;;;;;5099210;28;20618;-82
2022/09/09 12:06:19;;;;;;;0.30;0.20;;;19.40;90.90;;;;;;5100597;28;20638;-80
2022/09/09 12:08:51;;;;;;;0.40;0.30;;;19.60;91.40;;;;;;5089780;28;21213;-81
2022/09/09 12:11:26;;;;;;;0.37;0.30;;;19.50;88.60;;;;;;5090238;28;21045;-82
2022/09/09 12:13:54;;;;;;;0.40;0.30;;;19.30;90.10;;;;;;5087626;28;20646;-80
2022/09/09 12:16:34;;;;;;;0.30;0.20;;;19.20;90.20;;;;;;5089577;28;20623;-82
2022/09/09 12:19:17;;;;;;;0.33;0.33;;;19.50;89.70;;;;;;5089965;28;21015;-82
2022/09/09 12:21:51;;;;;;;0.40;0.40;;;19.60;90.40;;;;;;5090055;28;20739;-81
2022/09/09 12:24:25;;;;;;;0.30;0.20;;;19.80;90.40;;;;;;5088552;28;20967;-81
2022/09/09 12:27:00;;;;;;;1.00;0.30;;;19.70;90.20;;;;;;5089806;28;20623;-80
2022/09/09 12:29:34;;;;;;;0.50;0.27;;;19.90;88.80;;;;;;5089114;28;20659;-80
2022/09/09 12:32:05;;;;;;;0.50;0.30;;;20.00;82.70;;;;;;5089747;28;20639;-82
2022/09/09 12:34:39;;;;;;;0.60;0.50;;;20.00;83.00;;;;;;5088805;28;20623;-81
2022/09/09 12:37:15;;;;;;;0.80;0.53;;;20.00;81.50;;;;;;5074881;28;20702;-81
2022/09/09 12:39:46;;;;;;;0.30;0.20;;;20.30;81.50;;;;;;5089093;28;20626;-80
2022/09/09 12:42:20;;;;;;;0.50;0.40;;;20.40;81.40;;;;;;5090368;28;20630;-81
2022/09/09 12:44:58;;;;;;;0.40;0.23;;;20.30;80.90;;;;;;5089496;28;20623;-80
2022/09/09 12:47:35;;;;;;;1.30;0.30;;;20.00;79.30;;;;;;5069465;28;21035;-80
2022/09/09 12:50:04;;;;;;;0.40;0.37;;;19.90;83.50;;;;;;5089400;28;20698;-80
2022/09/09 12:52:34;;;;;;;0.30;0.30;;;20.10;85.20;;;;;;5069669;28;20720;-80
2022/09/09 12:55:04;;;;;;;0.30;0.30;;;20.10;84.70;;;;;;5067947;28;21231;-81
2022/09/09 12:57:36;;;;;;;0.70;0.40;;;20.00;83.40;;;;;;5081143;28;20665;-81
2022/09/09 13:00:12;;;;;;;0.30;0.30;;;20.10;85.30;;;;;;5068940;28;20625;-80
2022/09/09 13:02:48;;;;;;;0.40;0.40;;;20.20;84.30;;;;;;5075157;28;20722;-80
2022/09/09 13:05:20;;;;;;;2.00;0.43;;;20.20;82.90;;;;;;5064149;28;20994;-82
2022/09/09 13:07:47;;;;;;;0.40;0.30;;;20.00;83.90;;;;;;5065121;28;20626;-81
2022/09/09 13:10:18;;;;;;;0.30;0.30;;;20.10;82.50;;;;;;5062035;28;20679;-80